PWSweather.com
Personal Weather Stations
Station Observations
KV9EWX
Winnebago, Il, Winnebago, IL 61088

Winnebago, IlWinnebago, IL 61088

Lat: 42.261175, Lon: -89.236369

Elevation: 892

Station Type: Lacrosse ws-2811

Latest ConditionsUpdated 10:11:31 AM CST Sunday, Jan 25, 2015
Currently Today's Max Today's Min Today's Average
Temperature 26.9°F-2.8°C 31.8°F-0.1°C 26.9°F-2.8°C 29.2°F-1.6°C
Dew Point 23.5°F-4.7°C 29.7°F-1.3°C 23.5°F-4.7°C 26.8°F-2.9°C
Winds 15.9 mph ENE25.6 kmh ENE 22.0 mph NE35.4 kmh NE - 5.9 mph 9.5 kmh
Wind Gusts 25.0 mph40.2 kmh 36.0 mph57.9 kmh - -
Humidity 87% 93% 87% 91%
Pressure 29.46 in997.6 mb 29.46 in997.6 mb 29.27 in991.2 mb -
Hour Temp Dew Point Humidity Winds Wind Gusts Pressure Precip Precip Rate Daily Precip Total
10:11 AM 26.9°F-2.8°C 23.5°F-4.7°C 87% 15.9 mph ENE25.6 kmh ENE 25.0 mph40.2 kmh 29.46 in997.6 mb 0.00 in0.0 mm 0.00 in/hr0.0 mm/hr 0.00 in0.0 mm
10:06 AM 27.1°F-2.7°C 23.9°F-4.5°C 88% 14.9 mph E24.0 kmh E 25.0 mph40.2 kmh 29.45 in997.3 mb 0.00 in0.0 mm 0.00 in/hr0.0 mm/hr 0.00 in0.0 mm
10:01 AM 27.3°F-2.6°C 24.1°F-4.4°C 88% 10.6 mph NNE17.1 kmh NNE 22.8 mph36.7 kmh 29.45 in997.3 mb 0.00 in0.0 mm 0.00 in/hr0.0 mm/hr 0.00 in0.0 mm
09:56 AM 27.1°F-2.7°C 23.9°F-4.5°C 88% 13.7 mph ENE22.0 kmh ENE 26.3 mph42.3 kmh 29.45 in997.3 mb 0.00 in0.0 mm 0.00 in/hr0.0 mm/hr 0.00 in0.0 mm
09:51 AM 26.9°F-2.8°C 23.7°F-4.6°C 88% 16.9 mph ENE27.2 kmh ENE 36.0 mph57.9 kmh 29.44 in997.0 mb 0.00 in0.0 mm 0.00 in/hr0.0 mm/hr 0.00 in0.0 mm
09:46 AM 26.9°F-2.8°C 23.7°F-4.6°C 88% 9.6 mph NNE15.4 kmh NNE 36.0 mph57.9 kmh 29.44 in997.0 mb 0.00 in0.0 mm 0.00 in/hr0.0 mm/hr 0.00 in0.0 mm
09:41 AM 27.1°F-2.7°C 24.2°F-4.3°C 89% 14.1 mph NNE22.7 kmh NNE 28.5 mph45.9 kmh 29.44 in997.0 mb 0.00 in0.0 mm 0.00 in/hr0.0 mm/hr 0.00 in0.0 mm
09:36 AM 27.1°F-2.7°C 24.2°F-4.3°C 89% 17.2 mph E27.7 kmh E 29.1 mph46.8 kmh 29.43 in996.6 mb 0.00 in0.0 mm 0.00 in/hr0.0 mm/hr 0.00 in0.0 mm
09:31 AM 27.1°F-2.7°C 24.2°F-4.3°C 89% 15.8 mph NE25.4 kmh NE 29.1 mph46.8 kmh 29.43 in996.6 mb 0.00 in0.0 mm 0.00 in/hr0.0 mm/hr 0.00 in0.0 mm
09:26 AM 27.1°F-2.7°C 24.2°F-4.3°C 89% 17.3 mph NE27.8 kmh NE 29.1 mph46.8 kmh 29.43 in996.6 mb 0.00 in0.0 mm 0.00 in/hr0.0 mm/hr 0.00 in0.0 mm
09:21 AM 27.3°F-2.6°C 24.1°F-4.4°C 88% 9.1 mph NE14.6 kmh NE 19.9 mph32.0 kmh 29.43 in996.6 mb 0.00 in0.0 mm 0.00 in/hr0.0 mm/hr 0.00 in0.0 mm
09:16 AM 27.1°F-2.7°C 24.2°F-4.3°C 89% 8.8 mph S14.2 kmh S 17.7 mph28.5 kmh 29.42 in996.3 mb 0.00 in0.0 mm 0.00 in/hr0.0 mm/hr 0.00 in0.0 mm
09:11 AM 27.1°F-2.7°C 24.2°F-4.3°C 89% 6.6 mph N10.6 kmh N 18.4 mph29.6 kmh 29.42 in996.3 mb 0.00 in0.0 mm 0.00 in/hr0.0 mm/hr 0.00 in0.0 mm
09:06 AM 27.1°F-2.7°C 24.2°F-4.3°C 89% 12.3 mph ENE19.8 kmh ENE 25.9 mph41.7 kmh 29.42 in996.3 mb 0.00 in0.0 mm 0.00 in/hr0.0 mm/hr 0.00 in0.0 mm
09:01 AM 27.1°F-2.7°C 24.5°F-4.2°C 90% 12.9 mph NNE20.8 kmh NNE 26.9 mph43.3 kmh 29.42 in996.3 mb 0.00 in0.0 mm 0.00 in/hr0.0 mm/hr 0.00 in0.0 mm
08:56 AM 27.1°F-2.7°C 24.5°F-4.2°C 90% 4.6 mph ENE7.4 kmh ENE 26.9 mph43.3 kmh 29.42 in996.3 mb 0.00 in0.0 mm 0.00 in/hr0.0 mm/hr 0.00 in0.0 mm
08:51 AM 27.1°F-2.7°C 24.2°F-4.3°C 89% 7.3 mph SE11.7 kmh SE 25.0 mph40.2 kmh 29.42 in996.3 mb 0.00 in0.0 mm 0.00 in/hr0.0 mm/hr 0.00 in0.0 mm
08:46 AM 27.1°F-2.7°C 24.5°F-4.2°C 90% 13.0 mph NE20.9 kmh NE 26.3 mph42.3 kmh 29.41 in995.9 mb 0.00 in0.0 mm 0.00 in/hr0.0 mm/hr 0.00 in0.0 mm
08:41 AM 26.9°F-2.8°C 24.3°F-4.3°C 90% 2.7 mph NE4.3 kmh NE 26.3 mph42.3 kmh 29.41 in995.9 mb 0.00 in0.0 mm 0.00 in/hr0.0 mm/hr 0.00 in0.0 mm
08:36 AM 26.9°F-2.8°C 24.3°F-4.3°C 90% 8.4 mph ENE13.5 kmh ENE 26.3 mph42.3 kmh 29.40 in995.6 mb 0.00 in0.0 mm 0.00 in/hr0.0 mm/hr 0.00 in0.0 mm
08:31 AM 26.9°F-2.8°C 24.3°F-4.3°C 90% 3.1 mph NNE5.0 kmh NNE 22.4 mph36.0 kmh 29.40 in995.6 mb 0.00 in0.0 mm 0.00 in/hr0.0 mm/hr 0.00 in0.0 mm
08:26 AM 26.9°F-2.8°C 24.0°F-4.4°C 89% 12.1 mph SSE19.5 kmh SSE 22.4 mph36.0 kmh 29.40 in995.6 mb 0.00 in0.0 mm 0.00 in/hr0.0 mm/hr 0.00 in0.0 mm
08:21 AM 26.9°F-2.8°C 24.0°F-4.4°C 89% 8.3 mph WSW13.4 kmh WSW 29.4 mph47.3 kmh 29.40 in995.6 mb 0.00 in0.0 mm 0.00 in/hr0.0 mm/hr 0.00 in0.0 mm
08:16 AM 26.9°F-2.8°C 24.0°F-4.4°C 89% 9.5 mph ENE15.3 kmh ENE 34.8 mph56.0 kmh 29.40 in995.6 mb 0.00 in0.0 mm 0.00 in/hr0.0 mm/hr 0.00 in0.0 mm
08:11 AM 27.1°F-2.7°C 24.5°F-4.2°C 90% 16.8 mph NE27.0 kmh NE 34.8 mph56.0 kmh 29.40 in995.6 mb 0.00 in0.0 mm 0.00 in/hr0.0 mm/hr 0.00 in0.0 mm
08:06 AM 27.1°F-2.7°C 24.7°F-4.1°C 91% 12.7 mph NE20.4 kmh NE 23.8 mph38.3 kmh 29.40 in995.6 mb 0.00 in0.0 mm 0.00 in/hr0.0 mm/hr 0.00 in0.0 mm
08:01 AM 27.3°F-2.6°C 24.9°F-3.9°C 91% 6.6 mph E10.6 kmh E 19.6 mph31.5 kmh 29.40 in995.6 mb 0.00 in0.0 mm 0.00 in/hr0.0 mm/hr 0.00 in0.0 mm
07:56 AM 27.3°F-2.6°C 24.9°F-3.9°C 91% 8.4 mph E13.5 kmh E 24.3 mph39.1 kmh 29.39 in995.3 mb 0.00 in0.0 mm 0.00 in/hr0.0 mm/hr 0.00 in0.0 mm
07:51 AM 27.3°F-2.6°C 24.9°F-3.9°C 91% 3.0 mph E4.8 kmh E 26.3 mph42.3 kmh 29.39 in995.3 mb 0.00 in0.0 mm 0.00 in/hr0.0 mm/hr 0.00 in0.0 mm
07:46 AM 27.3°F-2.6°C 24.9°F-3.9°C 91% 11.0 mph NNE17.7 kmh NNE 26.3 mph42.3 kmh 29.39 in995.3 mb 0.00 in0.0 mm 0.00 in/hr0.0 mm/hr 0.00 in0.0 mm
07:41 AM 27.3°F-2.6°C 24.9°F-3.9°C 91% 5.2 mph NE8.4 kmh NE 14.5 mph23.3 kmh 29.38 in994.9 mb 0.00 in0.0 mm 0.00 in/hr0.0 mm/hr 0.00 in0.0 mm
07:36 AM 27.3°F-2.6°C 24.9°F-3.9°C 91% 7.3 mph ENE11.7 kmh ENE 31.0 mph49.9 kmh 29.38 in994.9 mb 0.00 in0.0 mm 0.00 in/hr0.0 mm/hr 0.00 in0.0 mm
07:31 AM 27.3°F-2.6°C 24.9°F-3.9°C 91% 7.7 mph SW12.4 kmh SW 31.0 mph49.9 kmh 29.38 in994.9 mb 0.00 in0.0 mm 0.00 in/hr0.0 mm/hr 0.00 in0.0 mm
07:26 AM 27.5°F-2.5°C 25.1°F-3.8°C 91% 10.0 mph NNE16.1 kmh NNE 31.0 mph49.9 kmh 29.38 in994.9 mb 0.00 in0.0 mm 0.00 in/hr0.0 mm/hr 0.00 in0.0 mm
07:21 AM 27.3°F-2.6°C 24.9°F-3.9°C 91% 5.2 mph ENE8.4 kmh ENE 22.8 mph36.7 kmh 29.37 in994.6 mb 0.00 in0.0 mm 0.00 in/hr0.0 mm/hr 0.00 in0.0 mm
07:16 AM 27.3°F-2.6°C 24.9°F-3.9°C 91% 13.0 mph NE20.9 kmh NE 31.0 mph49.9 kmh 29.37 in994.6 mb 0.00 in0.0 mm 0.00 in/hr0.0 mm/hr 0.00 in0.0 mm
07:11 AM 27.5°F-2.5°C 25.1°F-3.8°C 91% 8.2 mph ESE13.2 kmh ESE 31.0 mph49.9 kmh 29.37 in994.6 mb 0.00 in0.0 mm 0.00 in/hr0.0 mm/hr 0.00 in0.0 mm
07:06 AM 27.5°F-2.5°C 25.2°F-3.8°C 91% 6.0 mph NE9.7 kmh NE 20.3 mph32.7 kmh 29.37 in994.6 mb 0.00 in0.0 mm 0.00 in/hr0.0 mm/hr 0.00 in0.0 mm
07:01 AM 27.5°F-2.5°C 25.2°F-3.8°C 91% 8.4 mph NE13.5 kmh NE 16.8 mph27.0 kmh 29.37 in994.6 mb 0.00 in0.0 mm 0.00 in/hr0.0 mm/hr 0.00 in0.0 mm
06:56 AM 27.5°F-2.5°C 25.0°F-3.9°C 90% 9.4 mph NNW15.1 kmh NNW 15.6 mph25.1 kmh 29.37 in994.6 mb 0.00 in0.0 mm 0.00 in/hr0.0 mm/hr 0.00 in0.0 mm
06:51 AM 27.7°F-2.4°C 25.1°F-3.8°C 90% 4.5 mph NE7.2 kmh NE 25.0 mph40.2 kmh 29.37 in994.6 mb 0.00 in0.0 mm 0.00 in/hr0.0 mm/hr 0.00 in0.0 mm
06:46 AM 27.9°F-2.3°C 25.3°F-3.7°C 90% 8.4 mph ESE13.5 kmh ESE 25.0 mph40.2 kmh 29.37 in994.6 mb 0.00 in0.0 mm 0.00 in/hr0.0 mm/hr 0.00 in0.0 mm
06:41 AM 28.1°F-2.2°C 25.5°F-3.6°C 90% 7.8 mph NNE12.6 kmh NNE 18.4 mph29.6 kmh 29.36 in994.2 mb 0.00 in0.0 mm 0.00 in/hr0.0 mm/hr 0.00 in0.0 mm
06:36 AM 28.1°F-2.2°C 25.3°F-3.7°C 89% 8.8 mph NE14.2 kmh NE 18.4 mph29.6 kmh 29.37 in994.6 mb 0.00 in0.0 mm 0.00 in/hr0.0 mm/hr 0.00 in0.0 mm
06:31 AM 28.3°F-2.1°C 25.5°F-3.6°C 89% 5.8 mph E9.3 kmh E 25.0 mph40.2 kmh 29.36 in994.2 mb 0.00 in0.0 mm 0.00 in/hr0.0 mm/hr 0.00 in0.0 mm
06:26 AM 28.3°F-2.1°C 25.5°F-3.6°C 89% 5.1 mph E8.2 kmh E 25.0 mph40.2 kmh 29.36 in994.2 mb 0.00 in0.0 mm 0.00 in/hr0.0 mm/hr 0.00 in0.0 mm
06:21 AM 28.4°F-2.0°C 25.5°F-3.6°C 89% 7.7 mph E12.4 kmh E 25.0 mph40.2 kmh 29.36 in994.2 mb 0.00 in0.0 mm 0.00 in/hr0.0 mm/hr 0.00 in0.0 mm
06:16 AM 28.4°F-2.0°C 25.5°F-3.6°C 89% 4.1 mph ENE6.6 kmh ENE 28.5 mph45.9 kmh 29.36 in994.2 mb 0.00 in0.0 mm 0.00 in/hr0.0 mm/hr 0.00 in0.0 mm
06:11 AM 28.6°F-1.9°C 25.7°F-3.5°C 89% 22.0 mph NE35.4 kmh NE 28.5 mph45.9 kmh 29.36 in994.2 mb 0.00 in0.0 mm 0.00 in/hr0.0 mm/hr 0.00 in0.0 mm
06:06 AM 28.8°F-1.8°C 26.2°F-3.2°C 90% 5.9 mph ESE9.5 kmh ESE 11.4 mph18.3 kmh 29.36 in994.2 mb 0.00 in0.0 mm 0.00 in/hr0.0 mm/hr 0.00 in0.0 mm
06:01 AM 28.8°F-1.8°C 26.2°F-3.2°C 90% 3.3 mph ENE5.3 kmh ENE 13.3 mph21.4 kmh 29.35 in993.9 mb 0.00 in0.0 mm 0.00 in/hr0.0 mm/hr 0.00 in0.0 mm
05:56 AM 29.0°F-1.7°C 26.4°F-3.1°C 90% 5.2 mph N8.4 kmh N 13.3 mph21.4 kmh 29.35 in993.9 mb 0.00 in0.0 mm 0.00 in/hr0.0 mm/hr 0.00 in0.0 mm
05:51 AM 29.0°F-1.7°C 26.1°F-3.3°C 89% 4.0 mph E6.4 kmh E 19.3 mph31.1 kmh 29.35 in993.9 mb 0.00 in0.0 mm 0.00 in/hr0.0 mm/hr 0.00 in0.0 mm
05:46 AM 29.0°F-1.7°C 26.4°F-3.1°C 90% 13.1 mph N21.1 kmh N 19.3 mph31.1 kmh 29.35 in993.9 mb 0.00 in0.0 mm 0.00 in/hr0.0 mm/hr 0.00 in0.0 mm
05:41 AM 29.0°F-1.7°C 26.7°F-2.9°C 91% 5.5 mph E8.9 kmh E 16.1 mph25.9 kmh 29.34 in993.6 mb 0.00 in0.0 mm 0.00 in/hr0.0 mm/hr 0.00 in0.0 mm
05:36 AM 29.0°F-1.7°C 26.7°F-2.9°C 91% 4.5 mph E7.2 kmh E 21.2 mph34.1 kmh 29.34 in993.6 mb 0.00 in0.0 mm 0.00 in/hr0.0 mm/hr 0.00 in0.0 mm
05:31 AM 29.2°F-1.6°C 26.8°F-2.9°C 91% 5.6 mph NNE9.0 kmh NNE 21.2 mph34.1 kmh 29.34 in993.6 mb 0.00 in0.0 mm 0.00 in/hr0.0 mm/hr 0.00 in0.0 mm
05:26 AM 29.2°F-1.6°C 26.8°F-2.9°C 91% 7.6 mph E12.2 kmh E 21.2 mph34.1 kmh 29.33 in993.2 mb 0.00 in0.0 mm 0.00 in/hr0.0 mm/hr 0.00 in0.0 mm
05:21 AM 29.3°F-1.5°C 26.9°F-2.8°C 91% 7.8 mph ENE12.6 kmh ENE 17.1 mph27.5 kmh 29.33 in993.2 mb 0.00 in0.0 mm 0.00 in/hr0.0 mm/hr 0.00 in0.0 mm
05:15 AM 29.5°F-1.4°C 27.1°F-2.7°C 91% 7.1 mph E11.4 kmh E 16.1 mph25.9 kmh 29.32 in992.9 mb 0.00 in0.0 mm 0.00 in/hr0.0 mm/hr 0.00 in0.0 mm
05:11 AM 29.5°F-1.4°C 27.1°F-2.7°C 91% 8.2 mph W13.2 kmh W 17.1 mph27.5 kmh 29.32 in992.9 mb 0.00 in0.0 mm 0.00 in/hr0.0 mm/hr 0.00 in0.0 mm
05:06 AM 29.7°F-1.3°C 27.3°F-2.6°C 91% 9.3 mph NNE15.0 kmh NNE 17.1 mph27.5 kmh 29.31 in992.6 mb 0.00 in0.0 mm 0.00 in/hr0.0 mm/hr 0.00 in0.0 mm
05:00 AM 29.9°F-1.2°C 27.5°F-2.5°C 91% 4.7 mph WSW7.6 kmh WSW 12.1 mph19.5 kmh 29.31 in992.6 mb 0.00 in0.0 mm 0.00 in/hr0.0 mm/hr 0.00 in0.0 mm
04:55 AM 29.9°F-1.2°C 27.5°F-2.5°C 91% 2.9 mph NE4.7 kmh NE 12.1 mph19.5 kmh 29.31 in992.6 mb 0.00 in0.0 mm 0.00 in/hr0.0 mm/hr 0.00 in0.0 mm
04:50 AM 29.9°F-1.2°C 27.8°F-2.3°C 92% 4.7 mph NW7.6 kmh NW 14.5 mph23.3 kmh 29.31 in992.6 mb 0.00 in0.0 mm 0.00 in/hr0.0 mm/hr 0.00 in0.0 mm
04:45 AM 30.1°F-1.1°C 28.0°F-2.2°C 92% 4.8 mph ESE7.7 kmh ESE 14.5 mph23.3 kmh 29.31 in992.6 mb 0.00 in0.0 mm 0.00 in/hr0.0 mm/hr 0.00 in0.0 mm
04:40 AM 30.2°F-1.0°C 28.1°F-2.2°C 92% 6.4 mph SSW10.3 kmh SSW 11.4 mph18.3 kmh 29.31 in992.6 mb 0.00 in0.0 mm 0.00 in/hr0.0 mm/hr 0.00 in0.0 mm
04:35 AM 30.2°F-1.0°C 28.1°F-2.2°C 92% 4.0 mph E6.4 kmh E 9.4 mph15.1 kmh 29.31 in992.6 mb 0.00 in0.0 mm 0.00 in/hr0.0 mm/hr 0.00 in0.0 mm
04:30 AM 30.4°F-0.9°C 28.3°F-2.1°C 92% 3.3 mph SW5.3 kmh SW 12.9 mph20.8 kmh 29.31 in992.6 mb 0.00 in0.0 mm 0.00 in/hr0.0 mm/hr 0.00 in0.0 mm
04:25 AM 30.4°F-0.9°C 28.3°F-2.1°C 92% 7.5 mph ENE12.1 kmh ENE 12.9 mph20.8 kmh 29.31 in992.6 mb 0.00 in0.0 mm 0.00 in/hr0.0 mm/hr 0.00 in0.0 mm
04:20 AM 30.4°F-0.9°C 28.0°F-2.2°C 91% 3.8 mph W6.1 kmh W 13.7 mph22.0 kmh 29.31 in992.6 mb 0.00 in0.0 mm 0.00 in/hr0.0 mm/hr 0.00 in0.0 mm
04:15 AM 30.4°F-0.9°C 28.0°F-2.2°C 91% 7.1 mph E11.4 kmh E 19.9 mph32.0 kmh 29.31 in992.6 mb 0.00 in0.0 mm 0.00 in/hr0.0 mm/hr 0.00 in0.0 mm
04:10 AM 30.6°F-0.8°C 28.2°F-2.1°C 91% 4.3 mph ENE6.9 kmh ENE 19.9 mph32.0 kmh 29.31 in992.6 mb 0.00 in0.0 mm 0.00 in/hr0.0 mm/hr 0.00 in0.0 mm
04:05 AM 30.7°F-0.7°C 28.4°F-2.0°C 91% 9.1 mph NE14.6 kmh NE 21.2 mph34.1 kmh 29.31 in992.6 mb 0.00 in0.0 mm 0.00 in/hr0.0 mm/hr 0.00 in0.0 mm
04:00 AM 30.9°F-0.6°C 28.6°F-1.9°C 91% 5.3 mph N8.5 kmh N 21.2 mph34.1 kmh 29.31 in992.6 mb 0.00 in0.0 mm 0.00 in/hr0.0 mm/hr 0.00 in0.0 mm
03:55 AM 31.0°F-0.6°C 28.9°F-1.7°C 92% 6.8 mph N10.9 kmh N 11.4 mph18.3 kmh 29.31 in992.6 mb 0.00 in0.0 mm 0.00 in/hr0.0 mm/hr 0.00 in0.0 mm
03:50 AM 31.4°F-0.3°C 29.3°F-1.5°C 92% 4.6 mph E7.4 kmh E 11.0 mph17.7 kmh 29.31 in992.6 mb 0.00 in0.0 mm 0.00 in/hr0.0 mm/hr 0.00 in0.0 mm
03:45 AM 31.4°F-0.3°C 29.3°F-1.5°C 92% 2.4 mph SW3.9 kmh SW 8.6 mph13.8 kmh 29.30 in992.2 mb 0.00 in0.0 mm 0.00 in/hr0.0 mm/hr 0.00 in0.0 mm
03:40 AM 31.4°F-0.3°C 29.3°F-1.5°C 92% 2.9 mph NNE4.7 kmh NNE 10.2 mph16.4 kmh 29.30 in992.2 mb 0.00 in0.0 mm 0.00 in/hr0.0 mm/hr 0.00 in0.0 mm
03:35 AM 31.6°F-0.2°C 29.5°F-1.4°C 92% 6.3 mph NW10.1 kmh NW 10.2 mph16.4 kmh 29.30 in992.2 mb 0.00 in0.0 mm 0.00 in/hr0.0 mm/hr 0.00 in0.0 mm
03:30 AM 31.6°F-0.2°C 29.5°F-1.4°C 92% 4.8 mph ENE7.7 kmh ENE 8.9 mph14.3 kmh 29.30 in992.2 mb 0.00 in0.0 mm 0.00 in/hr0.0 mm/hr 0.00 in0.0 mm
03:25 AM 31.6°F-0.2°C 29.5°F-1.4°C 92% 3.4 mph N5.5 kmh N 6.3 mph10.1 kmh 29.30 in992.2 mb 0.00 in0.0 mm 0.00 in/hr0.0 mm/hr 0.00 in0.0 mm
03:20 AM 31.6°F-0.2°C 29.5°F-1.4°C 92% 3.8 mph SE6.1 kmh SE 7.9 mph12.7 kmh 29.30 in992.2 mb 0.00 in0.0 mm 0.00 in/hr0.0 mm/hr 0.00 in0.0 mm
03:15 AM 31.8°F-0.1°C 29.7°F-1.3°C 92% 2.8 mph E4.5 kmh E 9.4 mph15.1 kmh 29.29 in991.9 mb 0.00 in0.0 mm 0.00 in/hr0.0 mm/hr 0.00 in0.0 mm
03:10 AM 31.6°F-0.2°C 29.5°F-1.4°C 92% 2.3 mph NNW3.7 kmh NNW 9.4 mph15.1 kmh 29.29 in991.9 mb 0.00 in0.0 mm 0.00 in/hr0.0 mm/hr 0.00 in0.0 mm
03:05 AM 31.6°F-0.2°C 29.5°F-1.4°C 92% 1.0 mph SW1.6 kmh SW 7.5 mph12.1 kmh 29.29 in991.9 mb 0.00 in0.0 mm 0.00 in/hr0.0 mm/hr 0.00 in0.0 mm
03:00 AM 31.6°F-0.2°C 29.5°F-1.4°C 92% 3.1 mph SW5.0 kmh SW 7.5 mph12.1 kmh 29.29 in991.9 mb 0.00 in0.0 mm 0.00 in/hr0.0 mm/hr 0.00 in0.0 mm
02:55 AM 31.4°F-0.3°C 29.3°F-1.5°C 92% 3.6 mph E5.8 kmh E 7.5 mph12.1 kmh 29.29 in991.9 mb 0.00 in0.0 mm 0.00 in/hr0.0 mm/hr 0.00 in0.0 mm
02:50 AM 31.4°F-0.3°C 29.3°F-1.5°C 92% 2.3 mph ESE3.7 kmh ESE 6.0 mph9.7 kmh 29.29 in991.9 mb 0.00 in0.0 mm 0.00 in/hr0.0 mm/hr 0.00 in0.0 mm
02:45 AM 31.2°F-0.4°C 29.4°F-1.4°C 93% 2.6 mph NE4.2 kmh NE 7.0 mph11.3 kmh 29.29 in991.9 mb 0.00 in0.0 mm 0.00 in/hr0.0 mm/hr 0.00 in0.0 mm
02:40 AM 31.0°F-0.6°C 28.9°F-1.7°C 92% 3.7 mph NE6.0 kmh NE 7.0 mph11.3 kmh 29.29 in991.9 mb 0.00 in0.0 mm 0.00 in/hr0.0 mm/hr 0.00 in0.0 mm
02:35 AM 31.0°F-0.6°C 28.9°F-1.7°C 92% 1.2 mph S1.9 kmh S 2.3 mph3.7 kmh 29.29 in991.9 mb 0.00 in0.0 mm 0.00 in/hr0.0 mm/hr 0.00 in0.0 mm
02:30 AM 30.9°F-0.6°C 28.8°F-1.8°C 92% 0.9 mph ESE1.4 kmh ESE 2.3 mph3.7 kmh 29.29 in991.9 mb 0.00 in0.0 mm 0.00 in/hr0.0 mm/hr 0.00 in0.0 mm
02:25 AM 30.9°F-0.6°C 28.8°F-1.8°C 92% 1.3 mph NNE2.1 kmh NNE 4.4 mph7.1 kmh 29.29 in991.9 mb 0.00 in0.0 mm 0.00 in/hr0.0 mm/hr 0.00 in0.0 mm
02:20 AM 30.7°F-0.7°C 28.7°F-1.8°C 92% 1.6 mph NE2.6 kmh NE 4.4 mph7.1 kmh 29.29 in991.9 mb 0.00 in0.0 mm 0.00 in/hr0.0 mm/hr 0.00 in0.0 mm
02:15 AM 30.7°F-0.7°C 28.7°F-1.8°C 92% 0.6 mph SE1.0 kmh SE 3.9 mph6.3 kmh 29.29 in991.9 mb 0.00 in0.0 mm 0.00 in/hr0.0 mm/hr 0.00 in0.0 mm
02:10 AM 30.7°F-0.7°C 28.7°F-1.8°C 92% 0.6 mph NW1.0 kmh NW 4.4 mph7.1 kmh 29.29 in991.9 mb 0.00 in0.0 mm 0.00 in/hr0.0 mm/hr 0.00 in0.0 mm
02:05 AM 30.6°F-0.8°C 28.5°F-1.9°C 92% 0.6 mph SSE1.0 kmh SSE 4.4 mph7.1 kmh 29.29 in991.9 mb 0.00 in0.0 mm 0.00 in/hr0.0 mm/hr 0.00 in0.0 mm
02:00 AM 30.6°F-0.8°C 28.5°F-1.9°C 92% 1.4 mph SE2.3 kmh SE 6.0 mph9.7 kmh 29.29 in991.9 mb 0.00 in0.0 mm 0.00 in/hr0.0 mm/hr 0.00 in0.0 mm
01:55 AM 30.6°F-0.8°C 28.5°F-1.9°C 92% 0.4 mph S0.6 kmh S 6.0 mph9.7 kmh 29.29 in991.9 mb 0.00 in0.0 mm 0.00 in/hr0.0 mm/hr 0.00 in0.0 mm
01:50 AM 30.6°F-0.8°C 28.5°F-1.9°C 92% 0.7 mph NE1.1 kmh NE 4.4 mph7.1 kmh 29.29 in991.9 mb 0.00 in0.0 mm 0.00 in/hr0.0 mm/hr 0.00 in0.0 mm
01:45 AM 30.4°F-0.9°C 28.3°F-2.1°C 92% 2.1 mph N3.4 kmh N 4.4 mph7.1 kmh 29.29 in991.9 mb 0.00 in0.0 mm 0.00 in/hr0.0 mm/hr 0.00 in0.0 mm
01:40 AM 30.4°F-0.9°C 28.3°F-2.1°C 92% 2.2 mph SE3.5 kmh SE 3.5 mph5.6 kmh 29.29 in991.9 mb 0.00 in0.0 mm 0.00 in/hr0.0 mm/hr 0.00 in0.0 mm
01:35 AM 30.4°F-0.9°C 28.3°F-2.1°C 92% 1.3 mph SW2.1 kmh SW 2.3 mph3.7 kmh 29.28 in991.5 mb 0.00 in0.0 mm 0.00 in/hr0.0 mm/hr 0.00 in0.0 mm
01:30 AM 30.4°F-0.9°C 28.3°F-2.1°C 92% 0.4 mph E0.6 kmh E 3.1 mph5.0 kmh 29.28 in991.5 mb 0.00 in0.0 mm 0.00 in/hr0.0 mm/hr 0.00 in0.0 mm
01:25 AM 30.4°F-0.9°C 28.3°F-2.1°C 92% 1.4 mph E2.3 kmh E 3.1 mph5.0 kmh 29.28 in991.5 mb 0.00 in0.0 mm 0.00 in/hr0.0 mm/hr 0.00 in0.0 mm
01:20 AM 30.4°F-0.9°C 28.3°F-2.1°C 92% 1.1 mph NNE1.8 kmh NNE 3.1 mph5.0 kmh 29.28 in991.5 mb 0.00 in0.0 mm 0.00 in/hr0.0 mm/hr 0.00 in0.0 mm
01:15 AM 30.4°F-0.9°C 28.3°F-2.1°C 92% 1.8 mph ESE2.9 kmh ESE 3.1 mph5.0 kmh 29.28 in991.5 mb 0.00 in0.0 mm 0.00 in/hr0.0 mm/hr 0.00 in0.0 mm
01:10 AM 30.4°F-0.9°C 28.3°F-2.1°C 92% 1.2 mph ENE1.9 kmh ENE 7.0 mph11.3 kmh 29.27 in991.2 mb 0.00 in0.0 mm 0.00 in/hr0.0 mm/hr 0.00 in0.0 mm
01:05 AM 30.4°F-0.9°C 28.3°F-2.1°C 92% 0.4 mph S0.6 kmh S 7.0 mph11.3 kmh 29.27 in991.2 mb 0.00 in0.0 mm 0.00 in/hr0.0 mm/hr 0.00 in0.0 mm
01:00 AM 30.4°F-0.9°C 28.3°F-2.1°C 92% 1.6 mph E2.6 kmh E 7.0 mph11.3 kmh 29.27 in991.2 mb 0.00 in0.0 mm 0.00 in/hr0.0 mm/hr 0.00 in0.0 mm
12:55 AM 30.4°F-0.9°C 28.3°F-2.1°C 92% 1.1 mph E1.8 kmh E 3.5 mph5.6 kmh 29.27 in991.2 mb 0.00 in0.0 mm 0.00 in/hr0.0 mm/hr 0.00 in0.0 mm
12:50 AM 30.4°F-0.9°C 28.3°F-2.1°C 92% 1.1 mph E1.8 kmh E 4.4 mph7.1 kmh 29.27 in991.2 mb 0.00 in0.0 mm 0.00 in/hr0.0 mm/hr 0.00 in0.0 mm
12:45 AM 30.2°F-1.0°C 28.1°F-2.2°C 92% 0.3 mph NE0.5 kmh NE 4.4 mph7.1 kmh 29.27 in991.2 mb 0.00 in0.0 mm 0.00 in/hr0.0 mm/hr 0.00 in0.0 mm
12:40 AM 30.2°F-1.0°C 28.1°F-2.2°C 92% 0.6 mph NE1.0 kmh NE 2.3 mph3.7 kmh 29.27 in991.2 mb 0.00 in0.0 mm 0.00 in/hr0.0 mm/hr 0.00 in0.0 mm
12:35 AM 30.2°F-1.0°C 28.1°F-2.2°C 92% 0.8 mph WSW1.3 kmh WSW 2.8 mph4.5 kmh 29.27 in991.2 mb 0.00 in0.0 mm 0.00 in/hr0.0 mm/hr 0.00 in0.0 mm
12:30 AM 30.2°F-1.0°C 28.1°F-2.2°C 92% 0.3 mph NW0.5 kmh NW 4.4 mph7.1 kmh 29.27 in991.2 mb 0.00 in0.0 mm 0.00 in/hr0.0 mm/hr 0.00 in0.0 mm
12:25 AM 30.1°F-1.1°C 28.0°F-2.2°C 92% 1.4 mph E2.3 kmh E 4.4 mph7.1 kmh 29.28 in991.5 mb 0.00 in0.0 mm 0.00 in/hr0.0 mm/hr 0.00 in0.0 mm
12:20 AM 30.1°F-1.1°C 28.0°F-2.2°C 92% 0.6 mph NE1.0 kmh NE 4.4 mph7.1 kmh 29.27 in991.2 mb 0.00 in0.0 mm 0.00 in/hr0.0 mm/hr 0.00 in0.0 mm
12:15 AM 30.1°F-1.1°C 28.0°F-2.2°C 92% 2.1 mph E3.4 kmh E 6.0 mph9.7 kmh 29.27 in991.2 mb 0.00 in0.0 mm 0.00 in/hr0.0 mm/hr 0.00 in0.0 mm
12:10 AM 30.1°F-1.1°C 28.0°F-2.2°C 92% 1.7 mph E2.7 kmh E 6.0 mph9.7 kmh 29.27 in991.2 mb 0.00 in0.0 mm 0.00 in/hr0.0 mm/hr 0.00 in0.0 mm
12:05 AM 30.1°F-1.1°C 28.0°F-2.2°C 92% 0.9 mph E1.4 kmh E 5.4 mph8.7 kmh 29.27 in991.2 mb 0.00 in0.0 mm 0.00 in/hr0.0 mm/hr 0.00 in0.0 mm
12:00 AM 29.9°F-1.2°C 27.8°F-2.3°C 92% 1.3 mph E2.1 kmh E 4.4 mph7.1 kmh 29.28 in991.5 mb 0.00 in0.0 mm 0.00 in/hr0.0 mm/hr 0.00 in0.0 mm